Samos, Greece
Current Conditions -  °F | °C
As of 6:20 AM on Saturday 25 Oct 2014 (Local Time) from LGSM Reporting Station
Broken Clouds Broken Clouds  
Wind Chill: 66°   Ceiling: 9000
Heat Index: 66°   Visibility: 6mi
Dew Point: 63°   Wind: 9mph
Humidity: 88%   Direction: 220°SW
Pressure: 29.8"   Gusts: NA
Location:  37.76°N, 26.98°E
Report Text: LGSM 250320Z 22008KT 9999 FEW018 BKN090 19/17 Q1009
Loading
Personal Weather Stations






























Interactive Weather Map New forecast layout! Learn more

10-Day Weather Forecast

Advertisements
Track Severe Weather on mobile